Terminal Aerodrome Forecast
Issued by NWS

Home | Current Version | Previous Version | Text Only | Print | Product List | Glossary On
Versions: 1 2 3 4 5 6 7 8 9 10 11 12
845
FTUS46 KMTR 061130
TAFSNS
TAF
KSNS 061130Z 0612/0712 10008KT P6SM SCT200
     FM062200 29008KT P6SM FEW200
     FM070600 11007KT P6SM SKC=

USA.gov is the U.S. government's official web portal to all federal, state and local government web resources and services.